createdAt,value
2022-11-13T00:00:38.204Z,11.42
2022-11-13T00:03:04.874Z,11.37
2022-11-13T00:05:31.516Z,11.33
2022-11-13T00:07:58.213Z,11.31
2022-11-13T00:10:24.882Z,11.31
2022-11-13T00:12:51.569Z,11.31
2022-11-13T00:15:18.189Z,11.28
2022-11-13T00:17:45.732Z,11.24
2022-11-13T00:20:12.374Z,11.10
2022-11-13T00:22:39.148Z,10.98
2022-11-13T00:25:06.123Z,10.97
2022-11-13T00:27:32.734Z,10.96
2022-11-13T00:29:59.481Z,10.88
2022-11-13T00:32:26.673Z,10.75
2022-11-13T00:34:53.361Z,10.68
2022-11-13T00:37:20.247Z,10.56
2022-11-13T00:39:46.973Z,10.44
2022-11-13T00:42:13.813Z,10.43
2022-11-13T00:44:40.674Z,10.48
2022-11-13T00:47:07.365Z,10.42
2022-11-13T00:49:34.113Z,10.33
2022-11-13T00:52:02.934Z,10.24
2022-11-13T00:54:29.802Z,10.11
2022-11-13T00:56:56.424Z,10.04
2022-11-13T00:59:23.205Z,9.95
2022-11-13T01:01:49.937Z,9.93
2022-11-13T01:04:16.778Z,9.95
2022-11-13T01:06:44.759Z,9.92
2022-11-13T01:09:11.648Z,9.75
2022-11-13T01:11:38.409Z,9.80
2022-11-13T01:14:05.164Z,9.72
2022-11-13T01:16:32.102Z,9.69
2022-11-13T01:18:58.982Z,9.64
2022-11-13T01:21:27.565Z,9.56
2022-11-13T01:23:55.058Z,9.55
2022-11-13T01:26:28.341Z,9.53
2022-11-13T01:28:58.321Z,9.50
2022-11-13T01:31:28.662Z,9.42
2022-11-13T01:33:56.007Z,9.38
2022-11-13T01:36:28.378Z,9.38
2022-11-13T01:38:55.906Z,9.33
2022-11-13T01:41:25.631Z,9.32
2022-11-13T01:43:53.952Z,9.33
2022-11-13T01:46:50.586Z,9.32
2022-11-13T01:49:24.552Z,9.27
2022-11-13T01:51:58.683Z,9.24
2022-11-13T01:54:39.020Z,9.22
2022-11-13T01:57:06.698Z,9.12
2022-11-13T01:59:40.897Z,9.01
2022-11-13T02:02:08.250Z,8.83
2022-11-13T02:04:36.042Z,8.79
2022-11-13T02:07:09.508Z,8.81
2022-11-13T02:09:40.324Z,8.82
2022-11-13T02:12:10.519Z,8.87
2022-11-13T02:14:41.322Z,8.68
2022-11-13T02:17:11.303Z,8.61
2022-11-13T02:19:42.149Z,8.52
2022-11-13T02:22:30.083Z,8.41
2022-11-13T02:25:00.323Z,8.32
2022-11-13T02:27:35.960Z,8.22
2022-11-13T02:30:22.028Z,8.20
2022-11-13T02:32:53.646Z,8.18
2022-11-13T02:35:24.971Z,8.08
2022-11-13T02:37:51.617Z,8.01
2022-11-13T02:40:19.090Z,7.91
2022-11-13T02:42:45.789Z,7.93
2022-11-13T02:45:12.474Z,8.01
2022-11-13T02:47:39.244Z,8.16
2022-11-13T02:50:06.587Z,8.06
2022-11-13T02:52:33.298Z,8.05
2022-11-13T02:54:59.968Z,8.04
2022-11-13T02:57:26.713Z,7.96
2022-11-13T02:59:53.737Z,7.91
2022-11-13T03:02:20.532Z,7.83
2022-11-13T03:05:16.330Z,7.72
2022-11-13T03:07:33.966Z,7.70
2022-11-13T03:10:00.647Z,7.64
2022-11-13T03:12:27.392Z,7.69
2022-11-13T03:14:54.075Z,7.82
2022-11-13T03:17:20.809Z,7.74
2022-11-13T03:19:47.552Z,7.59
2022-11-13T03:22:14.280Z,7.60
2022-11-13T03:24:40.964Z,7.47
2022-11-13T03:27:07.594Z,7.41
2022-11-13T03:29:34.275Z,7.41
2022-11-13T03:32:03.112Z,7.45
2022-11-13T03:34:29.898Z,7.47
2022-11-13T03:36:56.561Z,7.48
2022-11-13T03:39:23.256Z,7.48
2022-11-13T03:41:50.103Z,7.57
2022-11-13T03:44:17.065Z,7.60
2022-11-13T03:46:43.754Z,7.64
2022-11-13T03:49:10.423Z,7.68
2022-11-13T03:51:37.144Z,7.75
2022-11-13T03:54:04.007Z,7.77
2022-11-13T03:56:30.708Z,7.78
2022-11-13T03:58:57.500Z,7.87
2022-11-13T04:01:24.327Z,7.92
2022-11-13T04:03:50.985Z,8.02
2022-11-13T04:06:21.898Z,8.08
2022-11-13T04:08:48.666Z,8.14
2022-11-13T04:11:15.328Z,8.15
2022-11-13T04:13:42.030Z,8.30
2022-11-13T04:16:08.959Z,8.31
2022-11-13T04:18:35.590Z,8.34
2022-11-13T04:21:04.132Z,8.41
2022-11-13T04:23:31.307Z,8.51
2022-11-13T04:25:58.345Z,8.57
2022-11-13T04:28:25.151Z,8.64
2022-11-13T04:30:55.518Z,8.63
2022-11-13T04:33:22.510Z,8.67
2022-11-13T04:35:49.486Z,8.71
2022-11-13T04:38:16.408Z,8.79
2022-11-13T04:40:43.324Z,8.73
2022-11-13T04:43:10.132Z,8.74
2022-11-13T04:45:37.648Z,8.86
2022-11-13T04:48:04.776Z,9.01
2022-11-13T04:50:31.916Z,8.94
2022-11-13T04:52:58.749Z,8.93
2022-11-13T04:55:25.456Z,9.02
2022-11-13T04:57:55.348Z,9.05
2022-11-13T05:00:22.432Z,9.07
2022-11-13T05:02:49.195Z,9.20
2022-11-13T05:05:16.062Z,9.24
2022-11-13T05:07:42.786Z,9.27
2022-11-13T05:10:09.646Z,9.25
2022-11-13T05:12:36.341Z,9.36
2022-11-13T05:15:03.982Z,9.35
2022-11-13T05:17:30.612Z,9.40
2022-11-13T05:19:57.257Z,9.49
2022-11-13T05:22:24.020Z,9.46
2022-11-13T05:24:50.613Z,9.56
2022-11-13T05:27:17.933Z,9.60
2022-11-13T05:29:45.007Z,9.57
2022-11-13T05:32:11.777Z,9.63
2022-11-13T05:34:38.475Z,9.63
2022-11-13T05:37:05.253Z,9.70
2022-11-13T05:39:32.021Z,9.76
2022-11-13T05:41:59.403Z,9.69
2022-11-13T05:44:26.040Z,9.78
2022-11-13T05:46:52.709Z,9.83
2022-11-13T05:49:19.462Z,9.84
2022-11-13T05:51:46.209Z,9.86
2022-11-13T05:54:12.973Z,9.90
2022-11-13T05:56:40.485Z,9.93
2022-11-13T05:59:07.538Z,10.00
2022-11-13T06:01:37.471Z,10.05
2022-11-13T06:04:06.542Z,10.06
2022-11-13T06:06:33.902Z,10.03
2022-11-13T06:09:02.650Z,10.10
2022-11-13T06:11:30.454Z,10.05
2022-11-13T06:13:59.018Z,10.08
2022-11-13T06:16:30.487Z,10.10
2022-11-13T06:18:59.744Z,10.18
2022-11-13T06:21:30.313Z,10.21
2022-11-13T06:23:58.666Z,10.24
2022-11-13T06:26:33.988Z,10.20
2022-11-13T06:29:02.016Z,10.23
2022-11-13T06:31:32.343Z,10.26
2022-11-13T06:33:59.826Z,10.21
2022-11-13T06:36:28.988Z,10.15
2022-11-13T06:38:56.115Z,10.23
2022-11-13T06:41:26.985Z,10.25
2022-11-13T06:43:54.433Z,10.28
2022-11-13T06:46:25.602Z,10.31
2022-11-13T06:48:53.041Z,10.27
2022-11-13T06:51:25.704Z,10.24
2022-11-13T06:53:52.686Z,10.33
2022-11-13T06:56:19.813Z,10.38
2022-11-13T06:58:46.753Z,10.37
2022-11-13T07:01:19.415Z,10.31
2022-11-13T07:03:46.322Z,10.18
2022-11-13T07:06:18.578Z,10.31
2022-11-13T07:08:46.656Z,10.28
2022-11-13T07:11:16.592Z,10.27
2022-11-13T07:13:43.970Z,10.27
2022-11-13T07:16:19.115Z,10.34
2022-11-13T07:18:53.398Z,10.28
2022-11-13T07:21:21.310Z,10.26
2022-11-13T07:23:49.565Z,10.26
2022-11-13T07:26:16.697Z,10.26
2022-11-13T07:28:43.565Z,10.35
2022-11-13T07:31:12.753Z,10.33
2022-11-13T07:33:39.430Z,10.34
2022-11-13T07:36:06.719Z,10.34
2022-11-13T07:38:33.372Z,10.48
2022-11-13T07:41:00.520Z,10.50
2022-11-13T07:43:27.641Z,10.49
2022-11-13T07:45:55.413Z,10.52
2022-11-13T07:48:22.667Z,10.56
2022-11-13T07:50:49.744Z,10.63
2022-11-13T07:53:17.713Z,10.68
2022-11-13T07:55:44.520Z,10.69
2022-11-13T07:58:11.423Z,10.67
2022-11-13T08:00:38.865Z,10.75
2022-11-13T08:03:12.430Z,10.80
2022-11-13T08:05:39.781Z,10.92
2022-11-13T08:08:07.222Z,11.04
2022-11-13T08:10:34.049Z,11.05
2022-11-13T08:13:02.932Z,11.02
2022-11-13T08:15:30.742Z,11.05
2022-11-13T08:17:59.094Z,11.07
2022-11-13T08:20:27.607Z,11.24
2022-11-13T08:22:57.990Z,11.16
2022-11-13T08:25:25.088Z,11.22
2022-11-13T08:27:55.500Z,11.23
2022-11-13T08:30:23.802Z,11.27
2022-11-13T08:32:51.203Z,11.38
2022-11-13T08:35:19.708Z,11.38
2022-11-13T08:37:47.265Z,11.38
2022-11-13T08:40:14.344Z,11.58
2022-11-13T08:42:41.076Z,11.54
2022-11-13T08:45:08.718Z,11.61
2022-11-13T08:47:35.913Z,11.52
2022-11-13T08:50:03.253Z,11.56
2022-11-13T08:52:29.924Z,11.68
2022-11-13T08:54:56.899Z,11.77
2022-11-13T08:57:23.704Z,11.61
2022-11-13T08:59:50.552Z,11.63
2022-11-13T09:02:18.041Z,11.59
2022-11-13T09:04:44.776Z,11.57
2022-11-13T09:07:11.856Z,11.53
2022-11-13T09:09:39.527Z,11.44
2022-11-13T09:12:06.346Z,11.51
2022-11-13T09:14:33.095Z,11.45
2022-11-13T09:17:00.208Z,11.59
2022-11-13T09:19:27.210Z,11.40
2022-11-13T09:21:55.184Z,11.45
2022-11-13T09:24:21.989Z,11.46
2022-11-13T09:26:50.286Z,11.54
2022-11-13T09:29:18.354Z,11.46
2022-11-13T09:31:45.392Z,11.55
2022-11-13T09:34:12.061Z,11.59
2022-11-13T09:36:38.730Z,11.56
2022-11-13T09:39:05.635Z,11.51
2022-11-13T09:41:38.290Z,11.45
2022-11-13T09:44:12.145Z,11.54
2022-11-13T09:46:54.112Z,11.54
2022-11-13T09:49:36.122Z,11.43
2022-11-13T09:52:16.645Z,11.51
2022-11-13T09:54:43.454Z,11.53
2022-11-13T09:57:25.990Z,11.75
2022-11-13T10:00:04.176Z,11.72
2022-11-13T10:03:08.606Z,11.38
2022-11-13T10:05:51.447Z,11.45
2022-11-13T10:08:27.455Z,11.31
2022-11-13T10:11:04.727Z,11.31
2022-11-13T10:13:45.821Z,11.34
2022-11-13T10:16:30.648Z,11.32
2022-11-13T10:19:15.024Z,11.22
2022-11-13T10:21:52.069Z,11.27
2022-11-13T10:24:29.865Z,11.22
2022-11-13T10:26:59.765Z,11.17
2022-11-13T10:29:29.569Z,11.30
2022-11-13T10:31:57.192Z,11.28
2022-11-13T10:34:23.935Z,11.09
2022-11-13T10:37:09.072Z,11.12
2022-11-13T10:39:45.667Z,11.04
2022-11-13T10:42:24.260Z,11.07
2022-11-13T10:44:59.697Z,11.02
2022-11-13T10:48:02.117Z,10.99
2022-11-13T10:50:27.339Z,10.96
2022-11-13T10:52:56.043Z,11.03
2022-11-13T10:55:35.962Z,11.11
2022-11-13T10:58:12.391Z,11.02
2022-11-13T11:00:41.385Z,10.90
2022-11-13T11:03:19.551Z,11.01
2022-11-13T11:06:01.361Z,11.19
2022-11-13T11:08:34.868Z,11.18
2022-11-13T11:11:34.995Z,11.14
2022-11-13T11:14:32.043Z,11.20
2022-11-13T11:17:01.249Z,11.28
2022-11-13T11:19:32.139Z,11.23
2022-11-13T11:22:09.525Z,10.96
2022-11-13T11:24:42.200Z,11.03
2022-11-13T11:27:18.046Z,10.85
2022-11-13T11:29:54.334Z,11.03
2022-11-13T11:32:25.730Z,11.34
2022-11-13T11:35:05.165Z,11.27
2022-11-13T11:37:39.374Z,11.02
2022-11-13T11:40:21.946Z,10.86
2022-11-13T11:43:33.632Z,10.81
2022-11-13T11:46:00.386Z,10.98
2022-11-13T11:48:31.729Z,10.93
2022-11-13T11:51:13.311Z,10.88
2022-11-13T11:54:01.445Z,10.92
2022-11-13T11:56:42.043Z,10.97
2022-11-13T11:59:51.386Z,10.97
2022-11-13T12:02:39.938Z,10.96
2022-11-13T12:05:27.426Z,10.92
2022-11-13T12:08:08.179Z,11.00
2022-11-13T12:10:37.875Z,11.00
2022-11-13T12:13:07.630Z,10.89
2022-11-13T12:15:49.696Z,11.03
2022-11-13T12:18:48.242Z,10.94
2022-11-13T12:21:56.679Z,11.05
2022-11-13T12:24:50.386Z,11.02
2022-11-13T12:27:38.537Z,11.00
2022-11-13T12:30:17.893Z,11.13
2022-11-13T12:32:44.835Z,11.05
2022-11-13T12:35:20.255Z,11.04
2022-11-13T12:38:15.336Z,11.14
2022-11-13T12:40:54.056Z,11.14
2022-11-13T12:43:26.698Z,10.97
2022-11-13T12:45:59.639Z,11.05
2022-11-13T12:48:33.037Z,10.95
2022-11-13T12:51:03.199Z,11.00
2022-11-13T12:53:43.079Z,10.88
2022-11-13T12:56:24.080Z,11.01
2022-11-13T12:59:34.320Z,11.05
2022-11-13T13:02:27.204Z,10.97
2022-11-13T13:05:31.143Z,11.03
2022-11-13T13:08:11.519Z,11.01
2022-11-13T13:11:04.934Z,11.05
2022-11-13T13:13:39.976Z,10.94
2022-11-13T13:16:08.786Z,10.88
2022-11-13T13:18:38.040Z,10.89
2022-11-13T13:21:15.528Z,10.94
2022-11-13T13:23:56.835Z,10.90
2022-11-13T13:26:28.824Z,10.97
2022-11-13T13:29:18.273Z,11.03
2022-11-13T13:32:20.698Z,11.04
2022-11-13T13:35:03.129Z,10.90
2022-11-13T13:38:09.279Z,11.00
2022-11-13T13:41:01.748Z,11.08
2022-11-13T13:43:28.431Z,11.08
2022-11-13T13:46:12.330Z,11.04
2022-11-13T13:48:41.034Z,11.09
2022-11-13T13:51:26.162Z,11.10
2022-11-13T13:53:54.949Z,11.04
2022-11-13T13:56:23.216Z,11.14
2022-11-13T13:58:51.178Z,11.24
2022-11-13T14:01:33.189Z,11.22
2022-11-13T14:04:14.134Z,11.29
2022-11-13T14:06:55.826Z,11.23
2022-11-13T14:09:30.849Z,11.22
2022-11-13T14:12:00.833Z,11.26
2022-11-13T14:14:29.857Z,11.26
2022-11-13T14:16:58.723Z,11.26
2022-11-13T14:19:25.383Z,11.25
2022-11-13T14:22:04.443Z,11.24
2022-11-13T14:24:48.763Z,11.25
2022-11-13T14:27:20.717Z,11.16
2022-11-13T14:29:54.050Z,11.08
2022-11-13T14:32:29.533Z,10.97
2022-11-13T14:35:02.140Z,10.97
2022-11-13T14:37:35.918Z,10.96
2022-11-13T14:40:11.203Z,11.01
2022-11-13T14:42:43.822Z,11.16
2022-11-13T14:45:19.767Z,11.11
2022-11-13T14:48:15.865Z,11.13
2022-11-13T14:50:51.691Z,11.26
2022-11-13T14:53:34.142Z,11.12
2022-11-13T14:56:12.108Z,11.05
2022-11-13T14:58:47.324Z,11.12
2022-11-13T15:01:18.322Z,11.05
2022-11-13T15:03:46.250Z,11.10
2022-11-13T15:06:18.804Z,11.07
2022-11-13T15:08:46.782Z,11.09
2022-11-13T15:11:15.590Z,11.19
2022-11-13T15:13:42.978Z,11.13
2022-11-13T15:16:26.339Z,11.10
2022-11-13T15:18:54.641Z,10.97
2022-11-13T15:21:21.480Z,11.07
2022-11-13T15:23:48.105Z,11.07
2022-11-13T15:26:14.782Z,11.05
2022-11-13T15:28:44.491Z,11.04
2022-11-13T15:31:41.652Z,11.03
2022-11-13T15:34:12.787Z,11.00
2022-11-13T15:36:39.794Z,10.96
2022-11-13T15:39:13.153Z,10.98
2022-11-13T15:41:45.297Z,11.01
2022-11-13T15:44:14.297Z,11.05
2022-11-13T15:46:41.552Z,10.99
2022-11-13T15:49:08.236Z,11.01
2022-11-13T15:51:39.797Z,10.88
2022-11-13T15:54:24.634Z,10.96
2022-11-13T15:56:51.372Z,11.03
2022-11-13T15:59:18.196Z,11.04
2022-11-13T16:01:45.263Z,11.02
2022-11-13T16:04:13.276Z,10.96
2022-11-13T16:06:40.625Z,10.98
2022-11-13T16:09:12.996Z,11.01
2022-11-13T16:11:39.880Z,11.01
2022-11-13T16:14:07.122Z,11.07
2022-11-13T16:16:38.461Z,11.04
2022-11-13T16:19:23.746Z,10.92
2022-11-13T16:21:50.431Z,11.00
2022-11-13T16:24:22.542Z,10.94
2022-11-13T16:26:54.837Z,10.82
2022-11-13T16:29:23.308Z,10.78
2022-11-13T16:31:50.231Z,10.83
2022-11-13T16:34:16.879Z,10.85
2022-11-13T16:36:43.707Z,10.78
2022-11-13T16:39:15.889Z,10.79
2022-11-13T16:41:42.721Z,10.79
2022-11-13T16:44:09.473Z,10.74
2022-11-13T16:46:41.569Z,10.62
2022-11-13T16:49:20.278Z,10.60
2022-11-13T16:51:46.996Z,10.57
2022-11-13T16:54:14.371Z,10.67
2022-11-13T16:56:41.095Z,10.60
2022-11-13T16:59:10.368Z,10.59
2022-11-13T17:01:37.244Z,10.55
2022-11-13T17:04:04.561Z,10.57
2022-11-13T17:06:34.200Z,10.62
2022-11-13T17:09:02.955Z,10.60
2022-11-13T17:11:31.929Z,10.55
2022-11-13T17:14:00.589Z,10.67
2022-11-13T17:16:30.270Z,10.56
2022-11-13T17:18:57.852Z,10.56
2022-11-13T17:21:27.301Z,10.55
2022-11-13T17:23:58.976Z,10.41
2022-11-13T17:26:25.833Z,10.41
2022-11-13T17:28:53.277Z,10.44
2022-11-13T17:31:21.110Z,10.40
2022-11-13T17:33:48.211Z,10.38
2022-11-13T17:36:15.099Z,10.40
2022-11-13T17:38:41.875Z,10.33
2022-11-13T17:41:10.948Z,10.43
2022-11-13T17:43:39.567Z,10.41
2022-11-13T17:46:09.311Z,10.31
2022-11-13T17:48:36.869Z,10.31
2022-11-13T17:51:06.793Z,10.34
2022-11-13T17:53:34.151Z,10.26
2022-11-13T17:56:03.668Z,10.23
2022-11-13T17:58:30.844Z,10.23
2022-11-13T18:01:09.122Z,10.23
2022-11-13T18:03:35.986Z,10.23
2022-11-13T18:06:13.464Z,10.24
2022-11-13T18:08:41.709Z,10.20
2022-11-13T18:11:15.400Z,10.27
2022-11-13T18:13:42.992Z,10.25
2022-11-13T18:16:13.860Z,10.38
2022-11-13T18:18:41.776Z,10.39
2022-11-13T18:21:23.466Z,10.36
2022-11-13T18:23:56.671Z,10.30
2022-11-13T18:26:23.773Z,10.33
2022-11-13T18:28:50.431Z,10.25
2022-11-13T18:31:18.857Z,10.29
2022-11-13T18:33:45.971Z,10.30
2022-11-13T18:36:12.991Z,10.37
2022-11-13T18:38:39.844Z,10.27
2022-11-13T18:41:09.679Z,10.28
2022-11-13T18:43:36.635Z,10.29
2022-11-13T18:46:08.978Z,10.27
2022-11-13T18:48:38.698Z,10.24
2022-11-13T18:51:14.934Z,10.23
2022-11-13T18:53:43.754Z,10.19
2022-11-13T18:56:13.774Z,10.15
2022-11-13T18:58:42.034Z,10.15
2022-11-13T19:01:23.097Z,10.24
2022-11-13T19:04:23.900Z,10.23
2022-11-13T19:06:40.830Z,10.18
2022-11-13T19:09:11.597Z,10.18
2022-11-13T19:11:38.961Z,10.05
2022-11-13T19:14:06.215Z,10.07
2022-11-13T19:16:35.693Z,10.10
2022-11-13T19:19:05.923Z,10.09
2022-11-13T19:21:35.170Z,10.05
2022-11-13T19:24:02.981Z,10.01
2022-11-13T19:26:30.168Z,10.01
2022-11-13T19:28:57.501Z,10.01
2022-11-13T19:31:26.596Z,9.97
2022-11-13T19:33:58.835Z,9.93
2022-11-13T19:36:28.124Z,9.94
2022-11-13T19:38:55.769Z,10.04
2022-11-13T19:41:23.662Z,9.95
2022-11-13T19:43:50.774Z,9.97
2022-11-13T19:46:19.322Z,9.99
2022-11-13T19:48:48.023Z,9.92
2022-11-13T19:51:18.485Z,9.95
2022-11-13T19:53:50.261Z,9.83
2022-11-13T19:56:21.345Z,9.84
2022-11-13T19:58:49.563Z,9.91
2022-11-13T20:01:22.271Z,9.84
2022-11-13T20:03:54.540Z,9.82
2022-11-13T20:06:21.599Z,9.79
2022-11-13T20:08:48.436Z,9.80
2022-11-13T20:11:15.392Z,9.75
2022-11-13T20:13:43.072Z,9.80
2022-11-13T20:16:12.003Z,9.83
2022-11-13T20:18:38.935Z,9.69
2022-11-13T20:21:05.944Z,9.76
2022-11-13T20:23:33.374Z,9.71
2022-11-13T20:26:02.355Z,9.78
2022-11-13T20:28:30.599Z,9.81
2022-11-13T20:31:04.807Z,9.78
2022-11-13T20:33:33.326Z,9.78
2022-11-13T20:36:01.846Z,9.75
2022-11-13T20:38:29.200Z,9.72
2022-11-13T20:40:56.372Z,9.75
2022-11-13T20:43:23.675Z,9.65
2022-11-13T20:45:50.391Z,9.67
2022-11-13T20:48:17.187Z,9.76
2022-11-13T20:50:44.664Z,9.76
2022-11-13T20:53:12.465Z,9.77
2022-11-13T20:55:39.216Z,9.64
2022-11-13T20:58:05.966Z,9.71
2022-11-13T21:00:32.663Z,9.63
2022-11-13T21:02:59.440Z,9.71
2022-11-13T21:05:27.786Z,9.65
2022-11-13T21:07:54.661Z,9.71
2022-11-13T21:10:21.898Z,9.70
2022-11-13T21:12:48.559Z,9.70
2022-11-13T21:15:15.303Z,9.75
2022-11-13T21:17:41.941Z,9.74
2022-11-13T21:20:09.256Z,9.80
2022-11-13T21:22:35.865Z,9.72
2022-11-13T21:25:02.727Z,9.79
2022-11-13T21:27:29.314Z,9.75
2022-11-13T21:29:55.979Z,9.82
2022-11-13T21:32:22.595Z,9.76
2022-11-13T21:34:49.431Z,9.63
2022-11-13T21:37:16.297Z,9.69
2022-11-13T21:39:43.001Z,9.60
2022-11-13T21:42:09.767Z,9.66
2022-11-13T21:44:36.459Z,9.70
2022-11-13T21:47:03.370Z,9.62
2022-11-13T21:49:30.007Z,9.55
2022-11-13T21:51:56.890Z,9.54
2022-11-13T21:54:23.662Z,9.61
2022-11-13T21:56:50.913Z,9.53
2022-11-13T21:59:17.555Z,9.54
2022-11-13T22:01:44.261Z,9.53
2022-11-13T22:04:11.021Z,9.56
2022-11-13T22:06:39.569Z,9.51
2022-11-13T22:09:08.018Z,9.51
2022-11-13T22:11:36.256Z,9.50
2022-11-13T22:14:03.626Z,9.53
2022-11-13T22:16:33.247Z,9.40
2022-11-13T22:19:03.457Z,9.50
2022-11-13T22:21:31.320Z,9.50
2022-11-13T22:23:59.550Z,9.47
2022-11-13T22:26:27.892Z,9.48
2022-11-13T22:28:56.434Z,9.44
2022-11-13T22:31:26.675Z,9.42
2022-11-13T22:33:55.407Z,9.47
2022-11-13T22:36:23.647Z,9.52
2022-11-13T22:38:51.002Z,9.61
2022-11-13T22:41:24.211Z,9.51
2022-11-13T22:43:57.564Z,9.49
2022-11-13T22:46:26.541Z,9.49
2022-11-13T22:48:54.892Z,9.50
2022-11-13T22:51:24.240Z,9.44
2022-11-13T22:54:02.640Z,9.42
2022-11-13T22:56:30.959Z,9.39
2022-11-13T22:58:59.638Z,9.37
2022-11-13T23:01:28.942Z,9.41
2022-11-13T23:03:57.642Z,9.44
2022-11-13T23:06:27.218Z,9.40
2022-11-13T23:08:54.625Z,9.41
2022-11-13T23:11:23.974Z,9.36
2022-11-13T23:14:02.750Z,9.35
2022-11-13T23:16:31.051Z,9.33
2022-11-13T23:18:59.055Z,9.27
2022-11-13T23:21:27.683Z,9.35
2022-11-13T23:23:55.537Z,9.32
2022-11-13T23:26:22.960Z,9.36
2022-11-13T23:28:49.977Z,9.29
2022-11-13T23:31:16.877Z,9.36
2022-11-13T23:33:43.553Z,9.23
2022-11-13T23:36:12.178Z,9.22
2022-11-13T23:38:39.149Z,9.22
2022-11-13T23:41:06.653Z,9.20
2022-11-13T23:44:02.206Z,9.17
2022-11-13T23:46:20.177Z,9.21
2022-11-13T23:48:46.835Z,9.14
2022-11-13T23:51:13.544Z,9.09
2022-11-13T23:53:40.235Z,9.08
2022-11-13T23:56:07.671Z,9.07
2022-11-13T23:58:34.869Z,9.06
